City of Colorado Springs Municipal Airport
KCOS : now visible

Airfield :











YOU CAN JOIN US ON...

 
LOGIN :

Register | Disclaimer

   EN    FR    IT 

 









Legend :    VFR   Marginal VFR   IFR   Intensive IFR   Very Intensive IFR
Visi :
Ceiling :
>= 8 km
>= 3000ft
5 to 8 km
1000 to 3000 ft
1500m to 5 km
500 to 1000 ft
800 to 1500m
200 to 500 ft
< 800m
< 200 ft
Symbols :   Thunderstorms  Fog  Heavy snow  Heavy precipitations  Wind > 20 kt







- Airport Elevation : 6187 ft
- IATA code : COS


KCOS - City of Colorado Springs Municipal

CURRENT METAR :
  • 190854Z 01009KT 10SM FEW130 SCT250 15/10 A3016 RMK AO2 SLP115 T01500100 54000

EXPIRED METARs :
  • 190754Z 02008KT 10SM FEW120 BKN250 16/09 A3016 RMK AO2 SLP112 T01610094
  • 190654Z 07007KT 10SM FEW120 SCT250 19/09 A3016 RMK AO2 SLP108 T01940089 403390122

TAF KCOS
Valid from the 19 at 06:00 until the 20 at 06:00 UTC


190526Z 1906/2006 01006KT P6SM SKC
FM191900 16009KT P6SM FEW120
FM200300 01006KT P6SM SKC
No reported NOTAMs for that airfield.



MET'MAP, your aeronautical weather chart ! - Copyright ORBIFLY December 2007 - Disclaimer

ORBIFLY MET'MAP TEAM :

Programming & Development : Alexandra Zaïnal
Concept & Development : Baudouin d'Aumeries
Co-Development & Prog : Marc-Olivier Méhu
Technical & hardware support : Manuel Goepfert

Contact : metmap@orbifly.com




SOURCES & CREDITS :

   NOAA       Earth
Advisory